Airfield :
LOGIN :

Register | Disclaimer

   EN    FR    IT 

 










Legend :    VFR   Marginal VFR   IFR   Intensive IFR   Very Intensive IFR
Visi :
Ceiling :
>= 8 km
>= 3000ft
5 to 8 km
1000 to 3000 ft
1500m to 5 km
500 to 1000 ft
800 to 1500m
200 to 500 ft
< 800m
< 200 ft
Symbols :   Thunderstorms  Fog  Heavy snow  Heavy precipitations  Wind > 20 kt
SIGMETs :     Misc.  Thunderstorms  Icing  Turbulence  Mountain Waves  Volcanic Ashes






- Airport Elevation : 146 ft
- IATA code : RKE


EKRK - Roskilde Tune

CURRENT METAR :
  • 221950Z AUTO 17003KT 9999 SCT240/// 14/11 Q1007

EXPIRED METARs :
  • 221920Z AUTO 16004KT 9999 NCD 14/11 Q1007
  • 221850Z AUTO 16004KT 9999 NCD 14/11 Q1007
  • 221820Z AUTO 16004KT 9999 NCD 14/11 Q1007
  • 221750Z AUTO 13003KT 9999 NCD 16/12 Q1007
  • 221720Z AUTO 13004KT 9999 NCD 17/13 Q1007

TAF TAF EKRK
Valid from the 22 at 18:00 until the 23 at 03:00 UTC


221720Z 2218/2303 15005KT CAVOK
TEMPO 2221/2224 4000 BR
TEMPO 2300/2303 0200 FG VV002



MET'MAP, your aeronautical weather chart ! - Copyright ORBIFLY December 2007 - Disclaimer

ORBIFLY MET'MAP TEAM :

Programming & Development : Alexandra Zaïnal
Concept & original design : Baudouin d'Aumeries
Assistance for programming : Marc-Olivier Méhu
Technical & hardware support : Manuel Goepfert

Contact : metmap@orbifly.com




SOURCES & CREDITS :

   NOAA